createdAt,value
2023-05-16T00:04:00.026Z,96734.59
2023-05-16T00:09:01.939Z,96730.50
2023-05-16T00:14:03.870Z,96728.31
2023-05-16T00:19:06.532Z,96728.75
2023-05-16T00:24:08.645Z,96726.56
2023-05-16T00:29:10.267Z,96724.56
2023-05-16T00:34:12.216Z,96723.72
2023-05-16T00:39:13.874Z,96727.25
2023-05-16T00:44:15.674Z,96723.53
2023-05-16T00:49:18.375Z,96719.41
2023-05-16T00:54:22.866Z,96726.66
2023-05-16T00:59:25.641Z,96727.22
2023-05-16T01:04:28.123Z,96708.31
2023-05-16T01:09:31.298Z,96714.09
2023-05-16T01:14:46.553Z,96714.63
2023-05-16T01:20:05.440Z,96706.94
2023-05-16T01:25:10.870Z,96710.19
2023-05-16T01:30:17.380Z,96707.50
2023-05-16T01:35:19.284Z,96703.97
2023-05-16T01:40:33.486Z,96708.69
2023-05-16T01:45:39.208Z,96708.72
2023-05-16T01:50:46.320Z,96702.19
2023-05-16T01:55:51.919Z,96695.56
2023-05-16T02:00:54.366Z,96699.91
2023-05-16T02:05:56.980Z,96690.34
2023-05-16T02:10:58.866Z,96690.13
2023-05-16T02:16:00.600Z,96692.16
2023-05-16T02:21:02.363Z,96694.75
2023-05-16T02:26:04.453Z,96688.63
2023-05-16T02:31:06.433Z,96701.78
2023-05-16T02:36:08.565Z,96684.47
2023-05-16T02:41:10.402Z,96689.38
2023-05-16T02:46:31.752Z,96699.78
2023-05-16T02:51:33.591Z,96707.72
2023-05-16T02:56:35.983Z,96703.56
2023-05-16T03:01:37.857Z,96706.38
2023-05-16T03:06:40.291Z,96698.94
2023-05-16T03:11:42.515Z,96707.13
2023-05-16T03:16:44.610Z,96706.25
2023-05-16T03:21:47.420Z,96713.09
2023-05-16T03:26:49.612Z,96713.50
2023-05-16T03:31:53.476Z,96706.69
2023-05-16T03:36:55.541Z,96710.00
2023-05-16T03:41:57.521Z,96710.00
2023-05-16T03:46:59.277Z,96711.34
2023-05-16T03:52:01.020Z,96705.00
2023-05-16T03:57:03.738Z,96719.97
2023-05-16T04:02:06.546Z,96715.81
2023-05-16T04:07:08.287Z,96717.69
2023-05-16T04:12:10.090Z,96726.97
2023-05-16T04:17:12.875Z,96733.53
2023-05-16T04:22:14.632Z,96732.97
2023-05-16T04:27:16.789Z,96739.50
2023-05-16T04:32:18.500Z,96729.34
2023-05-16T04:37:20.797Z,96726.31
2023-05-16T04:42:22.492Z,96730.69
2023-05-16T04:47:24.287Z,96718.00
2023-05-16T04:52:26.237Z,96714.97
2023-05-16T04:57:28.122Z,96726.72
2023-05-16T05:02:29.813Z,96724.56
2023-05-16T05:07:32.759Z,96724.66
2023-05-16T05:12:35.683Z,96721.97
2023-05-16T05:17:37.877Z,96724.66
2023-05-16T05:22:39.873Z,96732.84
2023-05-16T05:27:41.902Z,96731.09
2023-05-16T05:32:43.615Z,96721.66
2023-05-16T05:37:46.350Z,96731.56
2023-05-16T05:42:48.103Z,96729.13
2023-05-16T05:47:49.895Z,96723.13
2023-05-16T05:52:51.809Z,96721.25
2023-05-16T05:57:53.486Z,96723.13
2023-05-16T06:02:55.960Z,96723.34
2023-05-16T06:07:58.471Z,96729.22
2023-05-16T06:13:00.149Z,96728.28
2023-05-16T06:18:02.096Z,96730.03
2023-05-16T06:23:03.959Z,96733.91
2023-05-16T06:28:05.707Z,96737.44
2023-05-16T06:33:07.521Z,96731.66
2023-05-16T06:38:09.476Z,96741.00
2023-05-16T06:43:12.066Z,96737.22
2023-05-16T06:48:15.661Z,96740.03
2023-05-16T06:53:18.571Z,96739.97
2023-05-16T06:58:20.363Z,96740.78
2023-05-16T07:03:22.519Z,96744.03
2023-05-16T07:08:25.905Z,96752.00
2023-05-16T07:13:27.737Z,96746.50
2023-05-16T07:18:29.600Z,96757.47
2023-05-16T07:23:31.422Z,96751.91
2023-05-16T07:28:33.133Z,96747.38
2023-05-16T07:33:34.936Z,96751.66
2023-05-16T07:38:36.814Z,96748.25
2023-05-16T07:43:38.610Z,96741.19
2023-05-16T07:48:40.580Z,96744.28
2023-05-16T07:53:42.475Z,96736.22
2023-05-16T07:58:44.313Z,96744.44
2023-05-16T08:03:46.541Z,96749.00
2023-05-16T08:08:48.825Z,96749.63
2023-05-16T08:13:50.496Z,96755.47
2023-05-16T08:18:52.622Z,96753.63
2023-05-16T08:23:54.719Z,96755.06
2023-05-16T08:28:56.505Z,96758.97
2023-05-16T08:33:58.253Z,96754.28
2023-05-16T08:39:00.508Z,96759.78
2023-05-16T08:44:02.246Z,96763.78
2023-05-16T08:49:07.813Z,96762.66
2023-05-16T08:54:13.526Z,96764.50
2023-05-16T08:59:16.339Z,96775.53
2023-05-16T09:04:18.644Z,96764.81
2023-05-16T09:09:20.454Z,96759.22
2023-05-16T09:14:22.510Z,96758.59
2023-05-16T09:19:24.383Z,96750.03
2023-05-16T09:24:26.308Z,96756.94
2023-05-16T09:29:28.234Z,96757.16
2023-05-16T09:34:30.043Z,96750.94
2023-05-16T09:39:31.860Z,96757.97
2023-05-16T09:44:33.717Z,96756.84
2023-05-16T09:49:37.678Z,96760.81
2023-05-16T09:54:39.959Z,96751.19
2023-05-16T09:59:41.667Z,96741.69
2023-05-16T10:04:43.545Z,96734.75
2023-05-16T10:09:46.574Z,96729.19
2023-05-16T10:14:50.381Z,96719.19
2023-05-16T10:19:54.120Z,96718.97
2023-05-16T10:25:08.157Z,96727.50
2023-05-16T10:30:10.918Z,96729.88
2023-05-16T10:35:13.046Z,96731.06
2023-05-16T10:40:15.384Z,96729.97
2023-05-16T10:45:18.934Z,96716.66
2023-05-16T10:50:44.626Z,96718.06
2023-05-16T10:55:59.098Z,96711.97
2023-05-16T11:01:29.545Z,96717.94
2023-05-16T11:06:32.764Z,96721.75
2023-05-16T11:11:48.602Z,96718.06
2023-05-16T11:17:14.209Z,96709.09
2023-05-16T11:22:18.827Z,96723.38
2023-05-16T11:27:22.830Z,96730.97
2023-05-16T11:32:24.691Z,96738.97
2023-05-16T11:37:39.562Z,96735.00
2023-05-16T11:49:09.470Z,96768.97
2023-05-16T11:54:13.037Z,96772.06
2023-05-16T11:59:15.714Z,96785.53
2023-05-16T12:04:18.049Z,96787.19
2023-05-16T12:09:20.107Z,96791.69
2023-05-16T12:14:22.531Z,96790.84
2023-05-16T12:19:24.773Z,96781.44
2023-05-16T12:24:30.989Z,96785.69
2023-05-16T12:29:32.791Z,96811.22
2023-05-16T12:34:34.935Z,96818.72
2023-05-16T12:39:38.292Z,96829.56
2023-05-16T12:44:44.844Z,96820.31
2023-05-16T12:49:47.935Z,96824.88
2023-05-16T12:54:49.850Z,96809.59
2023-05-16T12:59:51.806Z,96810.72
2023-05-16T13:04:53.611Z,96821.81
2023-05-16T13:09:55.404Z,96827.34
2023-05-16T13:14:59.580Z,96833.41
2023-05-16T13:20:02.707Z,96835.13
2023-05-16T13:25:06.281Z,96839.38
2023-05-16T13:30:08.655Z,96837.72
2023-05-16T13:35:10.453Z,96832.13
2023-05-16T13:40:12.582Z,96840.03
2023-05-16T13:45:14.319Z,96843.81
2023-05-16T13:50:16.080Z,96834.06
2023-05-16T13:55:18.578Z,96832.00
2023-05-16T14:00:35.852Z,96831.31
2023-05-16T14:05:42.342Z,96830.75
2023-05-16T14:10:45.167Z,96837.88
2023-05-16T14:15:47.201Z,96839.91
2023-05-16T14:20:50.715Z,96836.91
2023-05-16T14:25:52.486Z,96828.06
2023-05-16T14:30:54.480Z,96826.69
2023-05-16T14:35:56.474Z,96829.72
2023-05-16T14:40:58.230Z,96824.22
2023-05-16T14:46:01.015Z,96818.94
2023-05-16T14:51:04.105Z,96823.25
2023-05-16T14:56:06.157Z,96822.34
2023-05-16T15:01:08.473Z,96823.78
2023-05-16T15:06:10.363Z,96820.94
2023-05-16T15:11:12.113Z,96826.53
2023-05-16T15:16:14.352Z,96826.88
2023-05-16T15:21:16.302Z,96824.84
2023-05-16T15:26:18.739Z,96832.38
2023-05-16T15:31:20.487Z,96836.75
2023-05-16T15:36:22.178Z,96843.78
2023-05-16T15:41:50.084Z,96848.19
2023-05-16T15:46:45.946Z,96836.25
2023-05-16T15:51:48.027Z,96848.84
2023-05-16T15:56:49.800Z,96844.41
2023-05-16T16:01:51.627Z,96852.59
2023-05-16T16:06:53.448Z,96851.03
2023-05-16T16:11:56.595Z,96849.41
2023-05-16T16:16:58.479Z,96852.50
2023-05-16T16:22:00.594Z,96859.22
2023-05-16T16:27:02.373Z,96862.88
2023-05-16T16:32:04.269Z,96874.91
2023-05-16T16:37:06.405Z,96883.03
2023-05-16T16:42:08.451Z,96891.25
2023-05-16T16:47:10.461Z,96893.13
2023-05-16T16:52:12.205Z,96903.09
2023-05-16T16:57:14.748Z,96914.69
2023-05-16T17:02:16.725Z,96918.91
2023-05-16T17:07:18.703Z,96938.03
2023-05-16T17:12:22.059Z,96949.91
2023-05-16T17:17:25.124Z,96963.25
2023-05-16T17:22:28.042Z,96969.19
2023-05-16T17:27:30.119Z,96981.69
2023-05-16T17:32:32.302Z,96982.44
2023-05-16T17:37:34.242Z,96979.50
2023-05-16T17:42:37.062Z,96986.44
2023-05-16T17:47:39.533Z,96994.78
2023-05-16T17:52:41.364Z,96998.16
2023-05-16T17:57:43.742Z,97002.31
2023-05-16T18:02:45.474Z,97010.06
2023-05-16T18:07:47.399Z,97011.22
2023-05-16T18:12:49.310Z,97020.88
2023-05-16T18:17:51.076Z,97021.72
2023-05-16T18:22:53.136Z,97018.72
2023-05-16T18:27:54.875Z,97025.34
2023-05-16T18:32:59.680Z,97030.91
2023-05-16T18:38:03.956Z,97035.84
2023-05-16T18:43:07.357Z,97045.22
2023-05-16T18:48:11.916Z,97052.63
2023-05-16T18:53:16.940Z,97060.84
2023-05-16T18:58:19.728Z,97065.53
2023-05-16T19:03:22.879Z,97077.31
2023-05-16T19:08:29.191Z,97093.56
2023-05-16T19:13:41.062Z,97098.78
2023-05-16T19:18:43.652Z,97106.22
2023-05-16T19:23:51.667Z,97115.88
2023-05-16T19:28:53.523Z,97102.44
2023-05-16T19:33:57.368Z,97111.75
2023-05-16T19:38:59.235Z,97130.97
2023-05-16T19:44:01.376Z,97138.13
2023-05-16T19:49:03.455Z,97144.72
2023-05-16T19:54:05.620Z,97139.25
2023-05-16T19:59:07.351Z,97126.09
2023-05-16T20:04:09.410Z,97136.00
2023-05-16T20:09:11.551Z,97148.59
2023-05-16T20:14:13.389Z,97153.81
2023-05-16T20:19:15.375Z,97158.50
2023-05-16T20:24:17.745Z,97171.66
2023-05-16T20:29:19.616Z,97168.91
2023-05-16T20:34:21.348Z,97169.19
2023-05-16T20:39:23.272Z,97172.22
2023-05-16T20:44:26.312Z,97167.81
2023-05-16T20:49:28.124Z,97171.41
2023-05-16T20:54:29.994Z,97188.13
2023-05-16T20:59:32.311Z,97195.78
2023-05-16T21:04:34.128Z,97194.69
2023-05-16T21:09:37.750Z,97194.69
2023-05-16T21:14:39.982Z,97201.81
2023-05-16T21:19:42.276Z,97201.25
2023-05-16T21:24:44.276Z,97199.63
2023-05-16T21:29:46.024Z,97214.44
2023-05-16T21:34:47.756Z,97212.78
2023-05-16T21:39:49.591Z,97214.69
2023-05-16T21:44:51.534Z,97230.84
2023-05-16T21:49:53.286Z,97234.41
2023-05-16T21:54:56.294Z,97231.13
2023-05-16T21:59:58.841Z,97237.16
2023-05-16T22:05:01.236Z,97236.59
2023-05-16T22:10:05.113Z,97247.03
2023-05-16T22:15:07.458Z,97250.84
2023-05-16T22:20:09.657Z,97250.56
2023-05-16T22:25:11.431Z,97243.75
2023-05-16T22:30:13.526Z,97256.06
2023-05-16T22:35:15.760Z,97254.41
2023-05-16T22:40:17.769Z,97254.13
2023-05-16T22:45:19.708Z,97267.28
2023-05-16T22:50:21.972Z,97259.91
2023-05-16T22:55:23.828Z,97268.94
2023-05-16T23:00:25.737Z,97269.72
2023-05-16T23:05:27.630Z,97268.88
2023-05-16T23:10:30.459Z,97274.13
2023-05-16T23:15:32.247Z,97280.97
2023-05-16T23:20:34.055Z,97279.31
2023-05-16T23:25:35.811Z,97287.53
2023-05-16T23:30:37.927Z,97287.22
2023-05-16T23:35:40.258Z,97289.69
2023-05-16T23:40:41.966Z,97300.34
2023-05-16T23:45:44.220Z,97308.31
2023-05-16T23:50:46.062Z,97303.66
2023-05-16T23:55:47.706Z,97308.59
